sensor_id;sensor_type;location;lat;lon;timestamp;P1;durP1;ratioP1;P2;durP2;ratioP2
703;SDS011;335;48.694;9.120;2024-03-17T00:00:19;3.85;;;3.55;;
703;SDS011;335;48.694;9.120;2024-03-17T00:03:04;3.00;;;2.80;;
703;SDS011;335;48.694;9.120;2024-03-17T00:05:54;2.97;;;2.78;;
703;SDS011;335;48.694;9.120;2024-03-17T00:08:42;3.67;;;3.40;;
703;SDS011;335;48.694;9.120;2024-03-17T00:11:27;3.30;;;3.10;;
703;SDS011;335;48.694;9.120;2024-03-17T00:14:12;3.85;;;3.53;;
703;SDS011;335;48.694;9.120;2024-03-17T00:16:58;4.63;;;3.97;;
703;SDS011;335;48.694;9.120;2024-03-17T00:19:43;4.30;;;4.00;;
703;SDS011;335;48.694;9.120;2024-03-17T00:22:28;3.88;;;3.67;;
703;SDS011;335;48.694;9.120;2024-03-17T00:25:14;4.07;;;3.88;;
703;SDS011;335;48.694;9.120;2024-03-17T00:27:59;4.65;;;4.25;;
703;SDS011;335;48.694;9.120;2024-03-17T00:30:46;4.97;;;4.57;;
703;SDS011;335;48.694;9.120;2024-03-17T00:33:31;5.38;;;4.88;;
703;SDS011;335;48.694;9.120;2024-03-17T00:36:17;4.80;;;4.40;;
703;SDS011;335;48.694;9.120;2024-03-17T00:39:03;5.57;;;3.80;;
703;SDS011;335;48.694;9.120;2024-03-17T00:41:49;3.30;;;3.10;;
703;SDS011;335;48.694;9.120;2024-03-17T00:44:35;3.80;;;3.50;;
703;SDS011;335;48.694;9.120;2024-03-17T00:47:20;4.40;;;4.10;;
703;SDS011;335;48.694;9.120;2024-03-17T00:50:05;7.37;;;6.77;;
703;SDS011;335;48.694;9.120;2024-03-17T00:52:56;7.93;;;7.18;;
703;SDS011;335;48.694;9.120;2024-03-17T00:55:41;7.97;;;7.13;;
703;SDS011;335;48.694;9.120;2024-03-17T00:58:27;10.27;;;7.25;;
703;SDS011;335;48.694;9.120;2024-03-17T01:01:12;9.30;;;7.15;;
703;SDS011;335;48.694;9.120;2024-03-17T01:03:57;6.88;;;6.30;;
703;SDS011;335;48.694;9.120;2024-03-17T01:06:43;6.40;;;5.90;;
703;SDS011;335;48.694;9.120;2024-03-17T01:09:28;5.65;;;5.15;;
703;SDS011;335;48.694;9.120;2024-03-17T01:12:13;6.20;;;5.68;;
703;SDS011;335;48.694;9.120;2024-03-17T01:14:59;5.82;;;5.20;;
703;SDS011;335;48.694;9.120;2024-03-17T01:17:44;5.35;;;4.95;;
703;SDS011;335;48.694;9.120;2024-03-17T01:20:30;6.53;;;5.93;;
703;SDS011;335;48.694;9.120;2024-03-17T01:23:16;6.38;;;5.88;;
703;SDS011;335;48.694;9.120;2024-03-17T01:26:02;5.53;;;5.03;;
703;SDS011;335;48.694;9.120;2024-03-17T01:28:47;5.53;;;5.13;;
703;SDS011;335;48.694;9.120;2024-03-17T01:31:32;5.83;;;5.33;;
703;SDS011;335;48.694;9.120;2024-03-17T01:34:18;7.15;;;6.45;;
703;SDS011;335;48.694;9.120;2024-03-17T01:37:04;7.90;;;7.20;;
703;SDS011;335;48.694;9.120;2024-03-17T01:39:49;8.00;;;7.30;;
703;SDS011;335;48.694;9.120;2024-03-17T01:42:35;8.10;;;7.30;;
703;SDS011;335;48.694;9.120;2024-03-17T01:48:16;7.83;;;6.43;;
703;SDS011;335;48.694;9.120;2024-03-17T01:51:04;5.40;;;4.90;;
703;SDS011;335;48.694;9.120;2024-03-17T01:53:49;7.40;;;5.90;;
703;SDS011;335;48.694;9.120;2024-03-17T01:56:35;5.37;;;4.87;;
703;SDS011;335;48.694;9.120;2024-03-17T01:59:20;6.40;;;5.80;;
703;SDS011;335;48.694;9.120;2024-03-17T02:02:06;6.30;;;5.80;;
703;SDS011;335;48.694;9.120;2024-03-17T02:04:51;6.30;;;5.80;;
703;SDS011;335;48.694;9.120;2024-03-17T02:07:36;6.60;;;6.00;;
703;SDS011;335;48.694;9.120;2024-03-17T02:10:22;5.60;;;4.67;;
703;SDS011;335;48.694;9.120;2024-03-17T02:13:07;5.93;;;5.13;;
703;SDS011;335;48.694;9.120;2024-03-17T02:15:52;4.70;;;4.40;;
703;SDS011;335;48.694;9.120;2024-03-17T02:18:38;5.00;;;4.70;;
703;SDS011;335;48.694;9.120;2024-03-17T02:21:24;6.70;;;6.07;;
703;SDS011;335;48.694;9.120;2024-03-17T02:24:12;8.37;;;7.67;;
703;SDS011;335;48.694;9.120;2024-03-17T02:26:57;5.70;;;5.30;;
703;SDS011;335;48.694;9.120;2024-03-17T02:29:43;6.87;;;5.53;;
703;SDS011;335;48.694;9.120;2024-03-17T02:32:28;7.60;;;7.00;;
703;SDS011;335;48.694;9.120;2024-03-17T02:35:14;6.83;;;6.23;;
703;SDS011;335;48.694;9.120;2024-03-17T02:37:59;7.27;;;6.47;;
703;SDS011;335;48.694;9.120;2024-03-17T02:40:45;4.93;;;4.63;;
703;SDS011;335;48.694;9.120;2024-03-17T02:43:30;4.03;;;3.83;;
703;SDS011;335;48.694;9.120;2024-03-17T02:46:16;5.67;;;5.17;;
703;SDS011;335;48.694;9.120;2024-03-17T02:49:03;4.17;;;3.97;;
703;SDS011;335;48.694;9.120;2024-03-17T02:51:48;4.20;;;3.80;;
703;SDS011;335;48.694;9.120;2024-03-17T02:54:34;5.03;;;4.60;;
703;SDS011;335;48.694;9.120;2024-03-17T02:57:21;4.43;;;4.13;;
703;SDS011;335;48.694;9.120;2024-03-17T03:00:09;5.87;;;5.33;;
703;SDS011;335;48.694;9.120;2024-03-17T03:02:58;4.97;;;4.47;;
703;SDS011;335;48.694;9.120;2024-03-17T03:05:43;4.80;;;4.40;;
703;SDS011;335;48.694;9.120;2024-03-17T03:08:28;4.80;;;4.20;;
703;SDS011;335;48.694;9.120;2024-03-17T03:11:14;5.10;;;4.60;;
703;SDS011;335;48.694;9.120;2024-03-17T03:14:01;5.70;;;5.20;;
703;SDS011;335;48.694;9.120;2024-03-17T03:16:47;6.27;;;5.77;;
703;SDS011;335;48.694;9.120;2024-03-17T03:19:33;5.20;;;4.80;;
703;SDS011;335;48.694;9.120;2024-03-17T03:22:19;5.73;;;4.73;;
703;SDS011;335;48.694;9.120;2024-03-17T03:25:06;8.33;;;7.13;;
703;SDS011;335;48.694;9.120;2024-03-17T03:27:52;8.30;;;6.83;;
703;SDS011;335;48.694;9.120;2024-03-17T03:30:38;7.90;;;7.30;;
703;SDS011;335;48.694;9.120;2024-03-17T03:33:23;7.00;;;6.40;;
703;SDS011;335;48.694;9.120;2024-03-17T03:36:10;6.10;;;5.60;;
703;SDS011;335;48.694;9.120;2024-03-17T03:38:56;5.97;;;5.47;;
703;SDS011;335;48.694;9.120;2024-03-17T03:41:41;4.90;;;4.50;;
703;SDS011;335;48.694;9.120;2024-03-17T03:44:27;5.78;;;5.32;;
703;SDS011;335;48.694;9.120;2024-03-17T03:47:13;6.03;;;5.53;;
703;SDS011;335;48.694;9.120;2024-03-17T03:49:58;4.70;;;4.30;;
703;SDS011;335;48.694;9.120;2024-03-17T03:52:43;4.27;;;3.97;;
703;SDS011;335;48.694;9.120;2024-03-17T03:55:30;4.10;;;3.77;;
703;SDS011;335;48.694;9.120;2024-03-17T03:58:15;4.50;;;4.03;;
703;SDS011;335;48.694;9.120;2024-03-17T04:01:07;4.60;;;4.27;;
703;SDS011;335;48.694;9.120;2024-03-17T04:03:53;5.47;;;5.07;;
703;SDS011;335;48.694;9.120;2024-03-17T04:06:38;4.40;;;4.10;;
703;SDS011;335;48.694;9.120;2024-03-17T04:09:24;4.07;;;3.78;;
703;SDS011;335;48.694;9.120;2024-03-17T04:12:09;3.33;;;3.13;;
703;SDS011;335;48.694;9.120;2024-03-17T04:14:54;4.28;;;4.05;;
703;SDS011;335;48.694;9.120;2024-03-17T04:17:40;4.57;;;4.17;;
703;SDS011;335;48.694;9.120;2024-03-17T04:20:26;3.73;;;3.43;;
703;SDS011;335;48.694;9.120;2024-03-17T04:23:11;3.93;;;3.73;;
703;SDS011;335;48.694;9.120;2024-03-17T04:25:56;7.20;;;4.47;;
703;SDS011;335;48.694;9.120;2024-03-17T04:28:42;4.20;;;3.97;;
703;SDS011;335;48.694;9.120;2024-03-17T04:31:27;6.17;;;5.67;;
703;SDS011;335;48.694;9.120;2024-03-17T04:34:13;11.25;;;5.38;;
703;SDS011;335;48.694;9.120;2024-03-17T04:36:58;6.07;;;5.47;;
703;SDS011;335;48.694;9.120;2024-03-17T04:39:44;5.97;;;5.47;;
703;SDS011;335;48.694;9.120;2024-03-17T04:42:31;4.37;;;3.97;;
703;SDS011;335;48.694;9.120;2024-03-17T04:45:16;4.70;;;4.40;;
703;SDS011;335;48.694;9.120;2024-03-17T04:48:01;5.90;;;5.50;;
703;SDS011;335;48.694;9.120;2024-03-17T04:50:47;5.60;;;5.13;;
703;SDS011;335;48.694;9.120;2024-03-17T04:53:32;4.57;;;4.27;;
703;SDS011;335;48.694;9.120;2024-03-17T04:56:17;6.63;;;6.03;;
703;SDS011;335;48.694;9.120;2024-03-17T04:59:03;5.37;;;4.87;;
703;SDS011;335;48.694;9.120;2024-03-17T05:01:50;4.30;;;4.00;;
703;SDS011;335;48.694;9.120;2024-03-17T05:04:35;4.30;;;4.10;;
703;SDS011;335;48.694;9.120;2024-03-17T05:07:20;5.63;;;4.97;;
703;SDS011;335;48.694;9.120;2024-03-17T05:10:06;5.53;;;5.13;;
703;SDS011;335;48.694;9.120;2024-03-17T05:12:52;6.90;;;6.30;;
703;SDS011;335;48.694;9.120;2024-03-17T05:15:38;6.05;;;5.65;;
703;SDS011;335;48.694;9.120;2024-03-17T05:18:24;6.33;;;5.77;;
703;SDS011;335;48.694;9.120;2024-03-17T05:21:10;7.78;;;7.07;;
703;SDS011;335;48.694;9.120;2024-03-17T05:23:56;13.93;;;8.97;;
703;SDS011;335;48.694;9.120;2024-03-17T05:26:45;9.20;;;8.30;;
703;SDS011;335;48.694;9.120;2024-03-17T05:29:30;8.75;;;8.05;;
703;SDS011;335;48.694;9.120;2024-03-17T05:32:16;8.70;;;8.00;;
703;SDS011;335;48.694;9.120;2024-03-17T05:35:01;9.18;;;8.27;;
703;SDS011;335;48.694;9.120;2024-03-17T05:37:48;9.10;;;8.27;;
703;SDS011;335;48.694;9.120;2024-03-17T05:40:34;8.97;;;8.07;;
703;SDS011;335;48.694;9.120;2024-03-17T05:43:19;8.90;;;8.03;;
703;SDS011;335;48.694;9.120;2024-03-17T05:46:08;8.87;;;8.07;;
703;SDS011;335;48.694;9.120;2024-03-17T05:48:55;8.40;;;7.50;;
703;SDS011;335;48.694;9.120;2024-03-17T05:51:41;8.40;;;7.60;;
703;SDS011;335;48.694;9.120;2024-03-17T05:54:26;8.83;;;7.93;;
703;SDS011;335;48.694;9.120;2024-03-17T05:57:11;8.40;;;7.70;;
703;SDS011;335;48.694;9.120;2024-03-17T05:59:58;9.57;;;8.57;;
703;SDS011;335;48.694;9.120;2024-03-17T06:02:44;10.00;;;9.10;;
703;SDS011;335;48.694;9.120;2024-03-17T06:05:32;12.00;;;11.07;;
703;SDS011;335;48.694;9.120;2024-03-17T06:08:19;11.45;;;10.52;;
703;SDS011;335;48.694;9.120;2024-03-17T06:11:05;10.10;;;9.30;;
703;SDS011;335;48.694;9.120;2024-03-17T06:13:50;10.00;;;9.20;;
703;SDS011;335;48.694;9.120;2024-03-17T06:16:36;10.13;;;9.23;;
703;SDS011;335;48.694;9.120;2024-03-17T06:19:21;11.37;;;10.30;;
703;SDS011;335;48.694;9.120;2024-03-17T06:22:06;12.70;;;11.50;;
703;SDS011;335;48.694;9.120;2024-03-17T06:24:52;11.97;;;10.80;;
703;SDS011;335;48.694;9.120;2024-03-17T06:27:37;13.27;;;11.57;;
703;SDS011;335;48.694;9.120;2024-03-17T06:30:22;13.70;;;12.50;;
703;SDS011;335;48.694;9.120;2024-03-17T06:33:11;13.30;;;11.93;;
703;SDS011;335;48.694;9.120;2024-03-17T06:35:57;14.50;;;13.00;;
703;SDS011;335;48.694;9.120;2024-03-17T06:38:43;14.33;;;13.00;;
703;SDS011;335;48.694;9.120;2024-03-17T06:41:28;10.40;;;9.50;;
703;SDS011;335;48.694;9.120;2024-03-17T06:44:14;12.50;;;10.23;;
703;SDS011;335;48.694;9.120;2024-03-17T06:46:59;11.97;;;10.80;;
703;SDS011;335;48.694;9.120;2024-03-17T06:49:45;11.57;;;10.57;;
703;SDS011;335;48.694;9.120;2024-03-17T06:52:30;13.80;;;12.03;;
703;SDS011;335;48.694;9.120;2024-03-17T06:55:18;13.77;;;12.47;;
703;SDS011;335;48.694;9.120;2024-03-17T06:58:06;9.83;;;9.03;;
703;SDS011;335;48.694;9.120;2024-03-17T07:00:55;10.30;;;9.40;;
703;SDS011;335;48.694;9.120;2024-03-17T07:03:44;11.03;;;10.10;;
703;SDS011;335;48.694;9.120;2024-03-17T07:06:29;9.60;;;8.80;;
703;SDS011;335;48.694;9.120;2024-03-17T07:09:15;9.60;;;8.90;;
703;SDS011;335;48.694;9.120;2024-03-17T07:12:00;10.00;;;9.20;;
703;SDS011;335;48.694;9.120;2024-03-17T07:14:49;10.33;;;9.43;;
703;SDS011;335;48.694;9.120;2024-03-17T07:17:35;11.10;;;10.10;;
703;SDS011;335;48.694;9.120;2024-03-17T07:20:20;10.00;;;9.30;;
703;SDS011;335;48.694;9.120;2024-03-17T07:23:05;9.87;;;9.13;;
703;SDS011;335;48.694;9.120;2024-03-17T07:25:55;8.87;;;8.27;;
703;SDS011;335;48.694;9.120;2024-03-17T07:28:44;10.60;;;9.70;;
703;SDS011;335;48.694;9.120;2024-03-17T07:31:29;9.33;;;8.53;;
703;SDS011;335;48.694;9.120;2024-03-17T07:34:15;9.13;;;8.33;;
703;SDS011;335;48.694;9.120;2024-03-17T07:37:00;9.07;;;8.43;;
703;SDS011;335;48.694;9.120;2024-03-17T07:39:47;10.07;;;9.20;;
703;SDS011;335;48.694;9.120;2024-03-17T07:42:34;10.10;;;9.27;;
703;SDS011;335;48.694;9.120;2024-03-17T07:45:19;9.90;;;9.00;;
703;SDS011;335;48.694;9.120;2024-03-17T07:48:05;11.63;;;10.80;;
703;SDS011;335;48.694;9.120;2024-03-17T07:50:54;10.40;;;9.73;;
703;SDS011;335;48.694;9.120;2024-03-17T07:53:44;8.90;;;8.30;;
703;SDS011;335;48.694;9.120;2024-03-17T07:56:30;9.47;;;8.77;;
703;SDS011;335;48.694;9.120;2024-03-17T07:59:15;11.40;;;10.60;;
703;SDS011;335;48.694;9.120;2024-03-17T08:02:02;12.10;;;11.20;;
703;SDS011;335;48.694;9.120;2024-03-17T08:04:48;11.03;;;10.03;;
703;SDS011;335;48.694;9.120;2024-03-17T08:07:33;9.87;;;9.17;;
703;SDS011;335;48.694;9.120;2024-03-17T08:10:19;9.60;;;9.00;;
703;SDS011;335;48.694;9.120;2024-03-17T08:13:04;8.97;;;8.20;;
703;SDS011;335;48.694;9.120;2024-03-17T08:15:57;9.57;;;8.87;;
703;SDS011;335;48.694;9.120;2024-03-17T08:18:53;8.87;;;8.17;;
703;SDS011;335;48.694;9.120;2024-03-17T08:21:38;7.13;;;6.70;;
703;SDS011;335;48.694;9.120;2024-03-17T08:24:24;7.80;;;7.30;;
703;SDS011;335;48.694;9.120;2024-03-17T08:27:09;7.17;;;6.60;;
703;SDS011;335;48.694;9.120;2024-03-17T08:29:54;6.60;;;6.20;;
703;SDS011;335;48.694;9.120;2024-03-17T08:32:40;7.17;;;6.67;;
703;SDS011;335;48.694;9.120;2024-03-17T08:35:25;7.33;;;6.83;;
703;SDS011;335;48.694;9.120;2024-03-17T08:38:11;7.70;;;7.20;;
703;SDS011;335;48.694;9.120;2024-03-17T08:41:03;6.03;;;5.73;;
703;SDS011;335;48.694;9.120;2024-03-17T08:43:50;6.00;;;5.63;;
703;SDS011;335;48.694;9.120;2024-03-17T08:46:36;6.70;;;6.30;;
703;SDS011;335;48.694;9.120;2024-03-17T08:49:21;6.47;;;6.07;;
703;SDS011;335;48.694;9.120;2024-03-17T08:52:06;6.30;;;5.90;;
703;SDS011;335;48.694;9.120;2024-03-17T08:54:52;6.93;;;6.53;;
703;SDS011;335;48.694;9.120;2024-03-17T08:57:37;6.30;;;5.90;;
703;SDS011;335;48.694;9.120;2024-03-17T09:00:23;5.77;;;5.47;;
703;SDS011;335;48.694;9.120;2024-03-17T09:03:08;4.93;;;4.63;;
703;SDS011;335;48.694;9.120;2024-03-17T09:05:57;4.43;;;4.23;;
703;SDS011;335;48.694;9.120;2024-03-17T09:08:43;4.03;;;3.83;;
703;SDS011;335;48.694;9.120;2024-03-17T09:11:28;4.03;;;3.83;;
703;SDS011;335;48.694;9.120;2024-03-17T09:14:14;4.00;;;3.80;;
703;SDS011;335;48.694;9.120;2024-03-17T09:16:59;3.73;;;3.53;;
703;SDS011;335;48.694;9.120;2024-03-17T09:19:45;4.60;;;4.40;;
703;SDS011;335;48.694;9.120;2024-03-17T09:22:30;6.10;;;5.70;;
703;SDS011;335;48.694;9.120;2024-03-17T09:25:15;6.90;;;6.50;;
703;SDS011;335;48.694;9.120;2024-03-17T09:28:01;3.30;;;3.10;;
703;SDS011;335;48.694;9.120;2024-03-17T09:30:47;3.37;;;3.27;;
703;SDS011;335;48.694;9.120;2024-03-17T09:33:33;4.37;;;4.07;;
703;SDS011;335;48.694;9.120;2024-03-17T09:36:19;4.53;;;4.23;;
703;SDS011;335;48.694;9.120;2024-03-17T09:39:05;5.00;;;4.80;;
703;SDS011;335;48.694;9.120;2024-03-17T09:41:50;4.97;;;4.57;;
703;SDS011;335;48.694;9.120;2024-03-17T09:44:36;3.60;;;3.40;;
703;SDS011;335;48.694;9.120;2024-03-17T09:47:22;5.17;;;4.87;;
703;SDS011;335;48.694;9.120;2024-03-17T09:50:12;3.67;;;3.57;;
703;SDS011;335;48.694;9.120;2024-03-17T09:52:59;3.40;;;3.30;;
703;SDS011;335;48.694;9.120;2024-03-17T09:55:45;4.53;;;4.33;;
703;SDS011;335;48.694;9.120;2024-03-17T09:58:30;4.80;;;4.40;;
703;SDS011;335;48.694;9.120;2024-03-17T10:01:15;3.10;;;2.90;;
703;SDS011;335;48.694;9.120;2024-03-17T10:04:01;3.33;;;3.13;;
703;SDS011;335;48.694;9.120;2024-03-17T10:06:49;3.37;;;3.20;;
703;SDS011;335;48.694;9.120;2024-03-17T10:09:35;4.10;;;3.90;;
703;SDS011;335;48.694;9.120;2024-03-17T10:12:27;4.00;;;3.87;;
703;SDS011;335;48.694;9.120;2024-03-17T10:15:13;3.53;;;3.33;;
703;SDS011;335;48.694;9.120;2024-03-17T10:17:59;3.63;;;3.53;;
703;SDS011;335;48.694;9.120;2024-03-17T10:20:44;3.80;;;3.70;;
703;SDS011;335;48.694;9.120;2024-03-17T10:23:30;3.27;;;3.17;;
703;SDS011;335;48.694;9.120;2024-03-17T10:26:15;3.00;;;2.87;;
703;SDS011;335;48.694;9.120;2024-03-17T10:29:00;3.20;;;3.10;;
703;SDS011;335;48.694;9.120;2024-03-17T10:31:48;4.00;;;3.27;;
703;SDS011;335;48.694;9.120;2024-03-17T10:34:33;3.10;;;3.00;;
703;SDS011;335;48.694;9.120;2024-03-17T10:37:22;3.33;;;3.23;;
703;SDS011;335;48.694;9.120;2024-03-17T10:40:10;2.57;;;2.40;;
703;SDS011;335;48.694;9.120;2024-03-17T10:42:57;2.53;;;2.40;;
703;SDS011;335;48.694;9.120;2024-03-17T10:45:44;2.53;;;2.40;;
703;SDS011;335;48.694;9.120;2024-03-17T10:48:30;3.20;;;2.90;;
703;SDS011;335;48.694;9.120;2024-03-17T10:51:19;2.80;;;2.70;;
703;SDS011;335;48.694;9.120;2024-03-17T10:54:04;2.73;;;2.63;;
703;SDS011;335;48.694;9.120;2024-03-17T10:56:50;3.47;;;3.20;;
703;SDS011;335;48.694;9.120;2024-03-17T10:59:39;2.70;;;2.60;;
703;SDS011;335;48.694;9.120;2024-03-17T11:02:26;3.20;;;3.10;;
703;SDS011;335;48.694;9.120;2024-03-17T11:08:12;2.40;;;2.30;;
703;SDS011;335;48.694;9.120;2024-03-17T11:11:00;2.40;;;2.30;;
703;SDS011;335;48.694;9.120;2024-03-17T11:13:46;2.57;;;2.37;;
703;SDS011;335;48.694;9.120;2024-03-17T11:16:31;2.57;;;2.37;;
703;SDS011;335;48.694;9.120;2024-03-17T11:19:17;2.77;;;2.60;;
703;SDS011;335;48.694;9.120;2024-03-17T11:28:11;2.40;;;2.30;;
703;SDS011;335;48.694;9.120;2024-03-17T11:31:42;3.83;;;2.60;;
703;SDS011;335;48.694;9.120;2024-03-17T11:34:32;2.83;;;2.73;;
703;SDS011;335;48.694;9.120;2024-03-17T11:37:40;2.53;;;2.43;;
703;SDS011;335;48.694;9.120;2024-03-17T11:40:27;2.63;;;2.50;;
703;SDS011;335;48.694;9.120;2024-03-17T11:43:15;2.00;;;1.90;;
703;SDS011;335;48.694;9.120;2024-03-17T11:46:01;2.17;;;2.07;;
703;SDS011;335;48.694;9.120;2024-03-17T11:48:47;1.93;;;1.77;;
703;SDS011;335;48.694;9.120;2024-03-17T11:51:34;2.13;;;2.00;;
703;SDS011;335;48.694;9.120;2024-03-17T11:54:21;1.93;;;1.60;;
703;SDS011;335;48.694;9.120;2024-03-17T11:57:09;2.40;;;2.30;;
703;SDS011;335;48.694;9.120;2024-03-17T11:59:55;2.20;;;2.10;;
703;SDS011;335;48.694;9.120;2024-03-17T12:02:41;2.37;;;2.27;;
703;SDS011;335;48.694;9.120;2024-03-17T12:05:27;3.03;;;2.43;;
703;SDS011;335;48.694;9.120;2024-03-17T12:08:21;5.33;;;2.30;;
703;SDS011;335;48.694;9.120;2024-03-17T12:11:16;2.20;;;2.00;;
703;SDS011;335;48.694;9.120;2024-03-17T12:14:13;1.63;;;1.53;;
703;SDS011;335;48.694;9.120;2024-03-17T12:17:04;1.70;;;1.50;;
703;SDS011;335;48.694;9.120;2024-03-17T12:19:52;2.90;;;1.90;;
703;SDS011;335;48.694;9.120;2024-03-17T12:22:37;1.77;;;1.67;;
703;SDS011;335;48.694;9.120;2024-03-17T12:25:24;1.90;;;1.80;;
703;SDS011;335;48.694;9.120;2024-03-17T12:28:17;3.60;;;1.80;;
703;SDS011;335;48.694;9.120;2024-03-17T12:31:03;4.60;;;1.93;;
703;SDS011;335;48.694;9.120;2024-03-17T12:33:48;2.00;;;1.90;;
703;SDS011;335;48.694;9.120;2024-03-17T12:36:34;1.93;;;1.83;;
703;SDS011;335;48.694;9.120;2024-03-17T12:39:20;2.00;;;1.90;;
703;SDS011;335;48.694;9.120;2024-03-17T12:42:07;1.70;;;1.60;;
703;SDS011;335;48.694;9.120;2024-03-17T12:44:54;1.53;;;1.43;;
703;SDS011;335;48.694;9.120;2024-03-17T12:47:41;1.77;;;1.67;;
703;SDS011;335;48.694;9.120;2024-03-17T12:50:33;1.37;;;1.30;;
703;SDS011;335;48.694;9.120;2024-03-17T12:53:19;1.93;;;1.70;;
703;SDS011;335;48.694;9.120;2024-03-17T12:56:04;1.60;;;1.50;;
703;SDS011;335;48.694;9.120;2024-03-17T12:59:09;1.67;;;1.57;;
703;SDS011;335;48.694;9.120;2024-03-17T13:02:13;1.53;;;1.47;;
703;SDS011;335;48.694;9.120;2024-03-17T13:05:12;1.87;;;1.77;;
703;SDS011;335;48.694;9.120;2024-03-17T13:08:00;1.73;;;1.63;;
703;SDS011;335;48.694;9.120;2024-03-17T13:10:46;2.10;;;1.90;;
703;SDS011;335;48.694;9.120;2024-03-17T13:13:32;1.97;;;1.80;;
703;SDS011;335;48.694;9.120;2024-03-17T13:16:17;1.63;;;1.63;;
703;SDS011;335;48.694;9.120;2024-03-17T13:19:02;1.63;;;1.63;;
703;SDS011;335;48.694;9.120;2024-03-17T13:21:48;1.90;;;1.80;;
703;SDS011;335;48.694;9.120;2024-03-17T13:24:33;1.73;;;1.70;;
703;SDS011;335;48.694;9.120;2024-03-17T13:27:18;1.87;;;1.77;;
703;SDS011;335;48.694;9.120;2024-03-17T13:30:04;1.93;;;1.60;;
703;SDS011;335;48.694;9.120;2024-03-17T13:32:51;2.20;;;2.03;;
703;SDS011;335;48.694;9.120;2024-03-17T13:35:46;2.07;;;1.87;;
703;SDS011;335;48.694;9.120;2024-03-17T13:38:32;1.53;;;1.50;;
703;SDS011;335;48.694;9.120;2024-03-17T13:41:17;1.67;;;1.57;;
703;SDS011;335;48.694;9.120;2024-03-17T13:44:03;1.93;;;1.83;;
703;SDS011;335;48.694;9.120;2024-03-17T13:46:48;1.77;;;1.67;;
703;SDS011;335;48.694;9.120;2024-03-17T13:49:34;1.93;;;1.83;;
703;SDS011;335;48.694;9.120;2024-03-17T13:52:19;1.83;;;1.70;;
703;SDS011;335;48.694;9.120;2024-03-17T13:55:06;1.80;;;1.70;;
703;SDS011;335;48.694;9.120;2024-03-17T13:57:56;2.30;;;2.20;;
703;SDS011;335;48.694;9.120;2024-03-17T14:00:44;1.60;;;1.60;;
703;SDS011;335;48.694;9.120;2024-03-17T14:03:29;1.87;;;1.77;;
703;SDS011;335;48.694;9.120;2024-03-17T14:06:15;1.43;;;1.43;;
703;SDS011;335;48.694;9.120;2024-03-17T14:09:01;1.53;;;1.43;;
703;SDS011;335;48.694;9.120;2024-03-17T14:11:46;1.90;;;1.80;;
703;SDS011;335;48.694;9.120;2024-03-17T14:14:32;2.50;;;1.87;;
703;SDS011;335;48.694;9.120;2024-03-17T14:17:17;1.20;;;1.10;;
703;SDS011;335;48.694;9.120;2024-03-17T14:20:02;1.23;;;0.90;;
703;SDS011;335;48.694;9.120;2024-03-17T14:22:49;1.20;;;1.10;;
703;SDS011;335;48.694;9.120;2024-03-17T14:25:43;0.87;;;0.87;;
703;SDS011;335;48.694;9.120;2024-03-17T14:28:29;1.33;;;1.30;;
703;SDS011;335;48.694;9.120;2024-03-17T14:31:15;1.73;;;1.63;;
703;SDS011;335;48.694;9.120;2024-03-17T14:34:00;1.93;;;1.83;;
703;SDS011;335;48.694;9.120;2024-03-17T14:36:46;1.63;;;1.60;;
703;SDS011;335;48.694;9.120;2024-03-17T14:39:32;3.90;;;1.40;;
703;SDS011;335;48.694;9.120;2024-03-17T14:42:17;1.87;;;1.77;;
703;SDS011;335;48.694;9.120;2024-03-17T14:45:04;1.57;;;1.30;;
703;SDS011;335;48.694;9.120;2024-03-17T14:47:50;2.13;;;1.20;;
703;SDS011;335;48.694;9.120;2024-03-17T14:50:37;1.50;;;1.47;;
703;SDS011;335;48.694;9.120;2024-03-17T14:53:22;1.43;;;1.33;;
703;SDS011;335;48.694;9.120;2024-03-17T14:56:08;1.83;;;1.70;;
703;SDS011;335;48.694;9.120;2024-03-17T14:58:54;1.37;;;1.27;;
703;SDS011;335;48.694;9.120;2024-03-17T15:01:39;1.77;;;1.67;;
703;SDS011;335;48.694;9.120;2024-03-17T15:04:25;3.27;;;2.10;;
703;SDS011;335;48.694;9.120;2024-03-17T15:07:12;1.20;;;1.10;;
703;SDS011;335;48.694;9.120;2024-03-17T15:09:57;1.70;;;1.53;;
703;SDS011;335;48.694;9.120;2024-03-17T15:12:43;2.40;;;1.50;;
703;SDS011;335;48.694;9.120;2024-03-17T15:15:29;1.67;;;1.57;;
703;SDS011;335;48.694;9.120;2024-03-17T15:18:15;2.13;;;2.03;;
703;SDS011;335;48.694;9.120;2024-03-17T15:21:01;1.47;;;1.37;;
703;SDS011;335;48.694;9.120;2024-03-17T15:23:46;1.67;;;1.57;;
703;SDS011;335;48.694;9.120;2024-03-17T15:26:31;2.07;;;1.53;;
703;SDS011;335;48.694;9.120;2024-03-17T15:29:17;1.47;;;1.37;;
703;SDS011;335;48.694;9.120;2024-03-17T15:32:03;1.50;;;1.40;;
703;SDS011;335;48.694;9.120;2024-03-17T15:34:49;1.30;;;1.30;;
703;SDS011;335;48.694;9.120;2024-03-17T15:37:35;1.50;;;1.40;;
703;SDS011;335;48.694;9.120;2024-03-17T15:40:20;1.20;;;1.20;;
703;SDS011;335;48.694;9.120;2024-03-17T15:43:06;1.47;;;1.37;;
703;SDS011;335;48.694;9.120;2024-03-17T15:45:51;1.30;;;1.20;;
703;SDS011;335;48.694;9.120;2024-03-17T15:48:36;1.53;;;1.43;;
703;SDS011;335;48.694;9.120;2024-03-17T15:51:22;1.63;;;1.37;;
703;SDS011;335;48.694;9.120;2024-03-17T15:54:07;3.90;;;1.53;;
703;SDS011;335;48.694;9.120;2024-03-17T15:56:54;1.50;;;1.40;;
703;SDS011;335;48.694;9.120;2024-03-17T15:59:39;1.33;;;1.10;;
703;SDS011;335;48.694;9.120;2024-03-17T16:02:25;2.00;;;1.30;;
703;SDS011;335;48.694;9.120;2024-03-17T16:05:12;1.70;;;1.30;;
703;SDS011;335;48.694;9.120;2024-03-17T16:07:59;1.40;;;1.40;;
703;SDS011;335;48.694;9.120;2024-03-17T16:10:45;0.97;;;0.97;;
703;SDS011;335;48.694;9.120;2024-03-17T16:13:32;1.60;;;1.47;;
703;SDS011;335;48.694;9.120;2024-03-17T16:16:18;1.57;;;1.47;;
703;SDS011;335;48.694;9.120;2024-03-17T16:19:03;1.37;;;1.20;;
703;SDS011;335;48.694;9.120;2024-03-17T16:21:52;1.33;;;1.17;;
703;SDS011;335;48.694;9.120;2024-03-17T16:24:37;1.50;;;1.50;;
703;SDS011;335;48.694;9.120;2024-03-17T16:27:26;2.17;;;1.37;;
703;SDS011;335;48.694;9.120;2024-03-17T16:30:12;1.30;;;1.30;;
703;SDS011;335;48.694;9.120;2024-03-17T16:32:57;2.40;;;2.13;;
703;SDS011;335;48.694;9.120;2024-03-17T16:35:43;1.97;;;1.97;;
703;SDS011;335;48.694;9.120;2024-03-17T16:38:33;2.70;;;2.60;;
703;SDS011;335;48.694;9.120;2024-03-17T16:41:20;3.17;;;3.03;;
703;SDS011;335;48.694;9.120;2024-03-17T16:44:08;3.60;;;3.30;;
703;SDS011;335;48.694;9.120;2024-03-17T16:50:14;3.53;;;3.23;;
703;SDS011;335;48.694;9.120;2024-03-17T16:52:59;3.83;;;3.60;;
703;SDS011;335;48.694;9.120;2024-03-17T16:55:46;4.30;;;4.00;;
703;SDS011;335;48.694;9.120;2024-03-17T16:58:33;3.80;;;3.60;;
703;SDS011;335;48.694;9.120;2024-03-17T17:01:19;3.67;;;3.47;;
703;SDS011;335;48.694;9.120;2024-03-17T17:04:04;4.10;;;3.90;;
703;SDS011;335;48.694;9.120;2024-03-17T17:06:53;3.50;;;3.30;;
703;SDS011;335;48.694;9.120;2024-03-17T17:09:39;4.17;;;3.70;;
703;SDS011;335;48.694;9.120;2024-03-17T17:12:24;4.17;;;3.87;;
703;SDS011;335;48.694;9.120;2024-03-17T17:15:11;4.53;;;4.23;;
703;SDS011;335;48.694;9.120;2024-03-17T17:17:58;4.03;;;3.73;;
703;SDS011;335;48.694;9.120;2024-03-17T17:20:44;4.60;;;4.37;;
703;SDS011;335;48.694;9.120;2024-03-17T17:23:30;4.43;;;4.13;;
703;SDS011;335;48.694;9.120;2024-03-17T17:26:19;5.40;;;4.50;;
703;SDS011;335;48.694;9.120;2024-03-17T17:29:06;4.70;;;4.40;;
703;SDS011;335;48.694;9.120;2024-03-17T17:31:52;4.70;;;4.40;;
703;SDS011;335;48.694;9.120;2024-03-17T17:34:38;4.43;;;4.23;;
703;SDS011;335;48.694;9.120;2024-03-17T17:37:24;4.37;;;4.07;;
703;SDS011;335;48.694;9.120;2024-03-17T17:40:09;3.63;;;3.43;;
703;SDS011;335;48.694;9.120;2024-03-17T17:42:55;5.07;;;4.70;;
703;SDS011;335;48.694;9.120;2024-03-17T17:45:40;4.17;;;3.87;;
703;SDS011;335;48.694;9.120;2024-03-17T17:48:26;4.37;;;3.97;;
703;SDS011;335;48.694;9.120;2024-03-17T17:51:12;4.80;;;4.50;;
703;SDS011;335;48.694;9.120;2024-03-17T17:54:02;3.50;;;3.37;;
703;SDS011;335;48.694;9.120;2024-03-17T17:56:48;4.17;;;3.90;;
703;SDS011;335;48.694;9.120;2024-03-17T17:59:33;5.60;;;4.00;;